sensor_id;sensor_type;location;lat;lon;timestamp;pressure;altitude;pressure_sealevel;temperature;humidity
74169;BME280;62523;53.336;83.690;2022-10-22T00:00:11;99374.31;;;8.04;77.61
74169;BME280;62523;53.336;83.690;2022-10-22T00:05:13;99364.03;;;7.99;77.05
74169;BME280;62523;53.336;83.690;2022-10-22T00:10:14;99351.78;;;7.99;76.53
74169;BME280;62523;53.336;83.690;2022-10-22T00:15:17;99353.81;;;7.93;76.76
74169;BME280;62523;53.336;83.690;2022-10-22T00:20:19;99351.00;;;7.97;76.55
74169;BME280;62523;53.336;83.690;2022-10-22T00:25:20;99336.81;;;8.02;76.19
74169;BME280;62523;53.336;83.690;2022-10-22T00:30:21;99332.28;;;8.05;75.74
74169;BME280;62523;53.336;83.690;2022-10-22T00:35:22;99338.88;;;7.95;76.43
74169;BME280;62523;53.336;83.690;2022-10-22T00:40:24;99327.38;;;7.97;75.59
74169;BME280;62523;53.336;83.690;2022-10-22T00:45:27;99323.91;;;7.97;75.75
74169;BME280;62523;53.336;83.690;2022-10-22T00:50:39;99310.28;;;7.89;76.15
74169;BME280;62523;53.336;83.690;2022-10-22T00:55:43;99300.06;;;7.83;76.49
74169;BME280;62523;53.336;83.690;2022-10-22T01:00:47;99297.16;;;7.89;75.79
74169;BME280;62523;53.336;83.690;2022-10-22T01:16:42;99280.53;;;7.90;75.32
74169;BME280;62523;53.336;83.690;2022-10-22T01:21:54;99272.38;;;7.77;75.49
74169;BME280;62523;53.336;83.690;2022-10-22T01:27:16;99266.25;;;7.76;75.61
74169;BME280;62523;53.336;83.690;2022-10-22T01:32:22;99271.50;;;7.76;75.59
74169;BME280;62523;53.336;83.690;2022-10-22T01:37:28;99267.63;;;7.85;74.92
74169;BME280;62523;53.336;83.690;2022-10-22T01:42:30;99268.59;;;8.02;73.70
74169;BME280;62523;53.336;83.690;2022-10-22T01:48:00;99260.66;;;7.84;74.85
74169;BME280;62523;53.336;83.690;2022-10-22T01:58:51;99240.47;;;7.86;74.38
74169;BME280;62523;53.336;83.690;2022-10-22T02:04:02;99248.19;;;7.89;73.70
74169;BME280;62523;53.336;83.690;2022-10-22T02:09:06;99268.41;;;7.87;74.21
74169;BME280;62523;53.336;83.690;2022-10-22T02:14:10;99276.28;;;7.87;74.09
74169;BME280;62523;53.336;83.690;2022-10-22T02:19:24;99262.94;;;7.92;73.81
74169;BME280;62523;53.336;83.690;2022-10-22T02:24:26;99256.78;;;7.93;73.65
74169;BME280;62523;53.336;83.690;2022-10-22T02:29:42;99254.22;;;7.91;73.51
74169;BME280;62523;53.336;83.690;2022-10-22T02:34:47;99248.56;;;7.82;73.39
74169;BME280;62523;53.336;83.690;2022-10-22T02:39:50;99253.16;;;7.95;73.54
74169;BME280;62523;53.336;83.690;2022-10-22T02:44:52;99259.59;;;8.07;73.07
74169;BME280;62523;53.336;83.690;2022-10-22T02:49:54;99264.06;;;8.05;73.14
74169;BME280;62523;53.336;83.690;2022-10-22T02:54:55;99257.53;;;8.14;73.19
74169;BME280;62523;53.336;83.690;2022-10-22T02:59:56;99250.84;;;8.26;72.35
74169;BME280;62523;53.336;83.690;2022-10-22T03:04:57;99242.91;;;8.27;72.41
74169;BME280;62523;53.336;83.690;2022-10-22T03:09:58;99242.19;;;8.43;72.62
74169;BME280;62523;53.336;83.690;2022-10-22T03:15:00;99243.09;;;8.60;71.43
74169;BME280;62523;53.336;83.690;2022-10-22T03:20:03;99242.16;;;8.61;71.30
74169;BME280;62523;53.336;83.690;2022-10-22T03:25:08;99227.09;;;8.82;70.48
74169;BME280;62523;53.336;83.690;2022-10-22T03:30:11;99222.88;;;8.80;71.22
74169;BME280;62523;53.336;83.690;2022-10-22T03:35:12;99233.28;;;8.81;71.03
74169;BME280;62523;53.336;83.690;2022-10-22T03:40:14;99222.53;;;8.86;70.52
74169;BME280;62523;53.336;83.690;2022-10-22T03:45:15;99208.16;;;9.11;69.83
74169;BME280;62523;53.336;83.690;2022-10-22T03:50:16;99200.47;;;9.23;69.46
74169;BME280;62523;53.336;83.690;2022-10-22T03:55:18;99197.38;;;9.15;70.09
74169;BME280;62523;53.336;83.690;2022-10-22T04:00:20;99186.31;;;9.26;69.48
74169;BME280;62523;53.336;83.690;2022-10-22T04:05:21;99183.81;;;9.40;68.95
74169;BME280;62523;53.336;83.690;2022-10-22T04:10:22;99177.19;;;9.49;68.04
74169;BME280;62523;53.336;83.690;2022-10-22T04:15:23;99165.59;;;9.69;68.29
74169;BME280;62523;53.336;83.690;2022-10-22T04:20:27;99163.81;;;9.86;66.50
74169;BME280;62523;53.336;83.690;2022-10-22T04:25:29;99164.28;;;10.08;65.92
74169;BME280;62523;53.336;83.690;2022-10-22T04:30:31;99159.66;;;10.28;64.81
74169;BME280;62523;53.336;83.690;2022-10-22T04:35:32;99150.19;;;10.55;64.63
74169;BME280;62523;53.336;83.690;2022-10-22T04:40:33;99143.53;;;10.50;64.12
74169;BME280;62523;53.336;83.690;2022-10-22T04:45:34;99134.09;;;10.45;65.13
74169;BME280;62523;53.336;83.690;2022-10-22T04:50:36;99129.84;;;10.43;65.59
74169;BME280;62523;53.336;83.690;2022-10-22T04:55:37;99115.97;;;10.84;63.15
74169;BME280;62523;53.336;83.690;2022-10-22T05:00:38;99107.63;;;11.06;63.72
74169;BME280;62523;53.336;83.690;2022-10-22T05:05:39;99094.72;;;11.16;63.32
74169;BME280;62523;53.336;83.690;2022-10-22T05:10:41;99090.03;;;11.21;62.32
74169;BME280;62523;53.336;83.690;2022-10-22T05:15:42;99090.78;;;11.09;61.90
74169;BME280;62523;53.336;83.690;2022-10-22T05:20:44;99086.78;;;11.30;60.56
74169;BME280;62523;53.336;83.690;2022-10-22T05:25:45;99071.19;;;11.54;59.56
74169;BME280;62523;53.336;83.690;2022-10-22T05:30:56;99068.81;;;11.64;59.60
74169;BME280;62523;53.336;83.690;2022-10-22T05:35:58;99058.41;;;11.75;58.57
74169;BME280;62523;53.336;83.690;2022-10-22T05:41:05;99061.56;;;11.95;58.49
74169;BME280;62523;53.336;83.690;2022-10-22T05:46:13;99044.50;;;12.26;58.23
74169;BME280;62523;53.336;83.690;2022-10-22T05:51:15;99039.03;;;12.42;57.19
74169;BME280;62523;53.336;83.690;2022-10-22T05:56:16;99037.03;;;12.58;56.33
74169;BME280;62523;53.336;83.690;2022-10-22T06:01:20;99006.91;;;12.74;55.53
74169;BME280;62523;53.336;83.690;2022-10-22T06:06:52;99029.00;;;12.73;55.38
74169;BME280;62523;53.336;83.690;2022-10-22T06:11:54;99027.41;;;12.70;54.10
74169;BME280;62523;53.336;83.690;2022-10-22T06:16:58;99017.91;;;12.80;54.51
74169;BME280;62523;53.336;83.690;2022-10-22T06:21:59;99013.34;;;12.82;54.09
74169;BME280;62523;53.336;83.690;2022-10-22T06:27:00;98989.72;;;12.92;53.82
74169;BME280;62523;53.336;83.690;2022-10-22T06:32:02;98985.59;;;13.01;54.51
74169;BME280;62523;53.336;83.690;2022-10-22T06:37:03;98973.25;;;13.25;54.00
74169;BME280;62523;53.336;83.690;2022-10-22T06:42:04;98970.31;;;13.17;54.19
74169;BME280;62523;53.336;83.690;2022-10-22T06:47:06;98966.81;;;13.29;53.15
74169;BME280;62523;53.336;83.690;2022-10-22T06:52:07;98962.16;;;13.20;53.98
74169;BME280;62523;53.336;83.690;2022-10-22T06:57:08;98946.94;;;13.48;52.85
74169;BME280;62523;53.336;83.690;2022-10-22T07:02:09;98923.94;;;13.48;52.33
74169;BME280;62523;53.336;83.690;2022-10-22T07:07:11;98897.69;;;13.34;51.54
74169;BME280;62523;53.336;83.690;2022-10-22T07:12:12;98892.47;;;13.57;51.88
74169;BME280;62523;53.336;83.690;2022-10-22T07:17:14;98880.19;;;13.44;51.67
74169;BME280;62523;53.336;83.690;2022-10-22T07:22:15;98883.31;;;13.49;51.53
74169;BME280;62523;53.336;83.690;2022-10-22T07:27:16;98865.88;;;13.47;51.49
74169;BME280;62523;53.336;83.690;2022-10-22T07:32:18;98848.66;;;13.41;51.79
74169;BME280;62523;53.336;83.690;2022-10-22T07:37:19;98835.59;;;13.51;51.51
74169;BME280;62523;53.336;83.690;2022-10-22T07:42:22;98846.75;;;13.55;50.73
74169;BME280;62523;53.336;83.690;2022-10-22T07:47:23;98835.06;;;13.46;51.05
74169;BME280;62523;53.336;83.690;2022-10-22T07:52:24;98827.28;;;13.56;50.64
74169;BME280;62523;53.336;83.690;2022-10-22T07:57:25;98819.25;;;13.68;50.05
74169;BME280;62523;53.336;83.690;2022-10-22T08:02:26;98801.91;;;13.76;49.58
74169;BME280;62523;53.336;83.690;2022-10-22T08:07:28;98798.06;;;13.68;49.99
74169;BME280;62523;53.336;83.690;2022-10-22T08:12:29;98770.63;;;13.58;49.94
74169;BME280;62523;53.336;83.690;2022-10-22T08:17:30;98787.84;;;13.75;49.76
74169;BME280;62523;53.336;83.690;2022-10-22T08:22:31;98772.69;;;13.77;49.03
74169;BME280;62523;53.336;83.690;2022-10-22T08:27:33;98783.63;;;13.84;48.04
74169;BME280;62523;53.336;83.690;2022-10-22T08:32:34;98738.53;;;13.85;46.82
74169;BME280;62523;53.336;83.690;2022-10-22T08:37:35;98765.81;;;13.97;46.45
74169;BME280;62523;53.336;83.690;2022-10-22T08:43:04;98752.47;;;13.99;46.87
74169;BME280;62523;53.336;83.690;2022-10-22T08:54:04;98738.59;;;14.06;46.73
74169;BME280;62523;53.336;83.690;2022-10-22T08:59:22;98732.13;;;13.99;46.79
74169;BME280;62523;53.336;83.690;2022-10-22T09:04:31;98738.59;;;14.06;46.83
74169;BME280;62523;53.336;83.690;2022-10-22T09:09:42;98719.13;;;13.96;46.90
74169;BME280;62523;53.336;83.690;2022-10-22T09:14:47;98721.28;;;14.02;46.99
74169;BME280;62523;53.336;83.690;2022-10-22T09:20:01;98717.56;;;14.05;46.71
74169;BME280;62523;53.336;83.690;2022-10-22T09:25:23;98692.75;;;14.06;46.19
74169;BME280;62523;53.336;83.690;2022-10-22T09:30:29;98707.81;;;14.05;46.70
74169;BME280;62523;53.336;83.690;2022-10-22T09:35:44;98712.38;;;14.03;46.82
74169;BME280;62523;53.336;83.690;2022-10-22T09:40:51;98693.22;;;14.00;46.68
74169;BME280;62523;53.336;83.690;2022-10-22T09:45:59;98686.63;;;14.05;46.11
74169;BME280;62523;53.336;83.690;2022-10-22T09:56:27;98679.28;;;13.98;46.43
74169;BME280;62523;53.336;83.690;2022-10-22T10:01:32;98663.16;;;14.01;46.09
74169;BME280;62523;53.336;83.690;2022-10-22T10:06:36;98647.16;;;13.91;47.08
74169;BME280;62523;53.336;83.690;2022-10-22T10:16:59;98645.41;;;14.12;45.89
74169;BME280;62523;53.336;83.690;2022-10-22T10:22:13;98630.34;;;14.13;46.06
74169;BME280;62523;53.336;83.690;2022-10-22T10:27:22;98629.13;;;14.17;46.04
74169;BME280;62523;53.336;83.690;2022-10-22T10:37:42;98603.09;;;14.01;46.73
74169;BME280;62523;53.336;83.690;2022-10-22T10:43:05;98599.09;;;14.07;46.90
74169;BME280;62523;53.336;83.690;2022-10-22T11:09:40;98568.16;;;13.75;47.88
74169;BME280;62523;53.336;83.690;2022-10-22T11:25:28;98548.81;;;13.63;47.85
74169;BME280;62523;53.336;83.690;2022-10-22T11:30:33;98545.97;;;13.44;48.91
74169;BME280;62523;53.336;83.690;2022-10-22T11:35:41;98534.06;;;13.27;48.98
74169;BME280;62523;53.336;83.690;2022-10-22T11:45:49;98549.56;;;13.20;49.62
74169;BME280;62523;53.336;83.690;2022-10-22T11:50:59;98542.84;;;13.16;49.86
74169;BME280;62523;53.336;83.690;2022-10-22T12:11:23;98539.84;;;13.21;49.41
74169;BME280;62523;53.336;83.690;2022-10-22T12:16:37;98525.06;;;13.41;48.60
74169;BME280;62523;53.336;83.690;2022-10-22T12:21:40;98505.00;;;13.38;47.83
74169;BME280;62523;53.336;83.690;2022-10-22T12:26:42;98511.34;;;13.47;47.59
74169;BME280;62523;53.336;83.690;2022-10-22T12:31:46;98495.19;;;13.50;47.36
74169;BME280;62523;53.336;83.690;2022-10-22T12:36:49;98497.44;;;13.66;46.56
74169;BME280;62523;53.336;83.690;2022-10-22T12:41:52;98484.41;;;13.74;46.28
74169;BME280;62523;53.336;83.690;2022-10-22T12:46:54;98476.22;;;13.77;45.89
74169;BME280;62523;53.336;83.690;2022-10-22T12:52:00;98474.53;;;13.76;45.91
74169;BME280;62523;53.336;83.690;2022-10-22T12:57:05;98462.00;;;13.78;45.65
74169;BME280;62523;53.336;83.690;2022-10-22T13:02:21;98448.72;;;13.89;45.40
74169;BME280;62523;53.336;83.690;2022-10-22T13:07:24;98418.81;;;13.78;45.97
74169;BME280;62523;53.336;83.690;2022-10-22T13:12:33;98418.56;;;13.81;46.40
74169;BME280;62523;53.336;83.690;2022-10-22T13:17:39;98432.38;;;13.84;45.94
74169;BME280;62523;53.336;83.690;2022-10-22T13:22:56;98417.72;;;14.01;45.44
74169;BME280;62523;53.336;83.690;2022-10-22T13:28:18;98414.75;;;14.16;45.46
74169;BME280;62523;53.336;83.690;2022-10-22T13:33:37;98365.72;;;14.00;46.81
74169;BME280;62523;53.336;83.690;2022-10-22T13:38:40;98365.03;;;13.98;46.81
74169;BME280;62523;53.336;83.690;2022-10-22T13:43:42;98360.69;;;13.97;47.35
74169;BME280;62523;53.336;83.690;2022-10-22T13:48:45;98342.38;;;13.84;48.06
74169;BME280;62523;53.336;83.690;2022-10-22T13:53:48;98331.53;;;13.87;47.27
74169;BME280;62523;53.336;83.690;2022-10-22T13:58:50;98307.38;;;13.81;47.47
74169;BME280;62523;53.336;83.690;2022-10-22T14:03:57;98309.59;;;13.76;47.58
74169;BME280;62523;53.336;83.690;2022-10-22T14:09:01;98305.28;;;13.75;47.42
74169;BME280;62523;53.336;83.690;2022-10-22T14:14:03;98297.38;;;13.84;46.84
74169;BME280;62523;53.336;83.690;2022-10-22T14:19:13;98288.72;;;13.82;46.97
74169;BME280;62523;53.336;83.690;2022-10-22T14:24:15;98282.03;;;13.78;46.91
74169;BME280;62523;53.336;83.690;2022-10-22T14:29:16;98259.19;;;13.77;47.19
74169;BME280;62523;53.336;83.690;2022-10-22T14:34:17;98240.13;;;13.83;46.55
74169;BME280;62523;53.336;83.690;2022-10-22T14:39:20;98238.19;;;13.85;46.19
74169;BME280;62523;53.336;83.690;2022-10-22T14:44:21;98238.41;;;13.72;47.11
74169;BME280;62523;53.336;83.690;2022-10-22T14:49:23;98239.81;;;13.77;46.42
74169;BME280;62523;53.336;83.690;2022-10-22T14:54:25;98233.06;;;13.63;47.13
74169;BME280;62523;53.336;83.690;2022-10-22T14:59:26;98217.63;;;13.68;47.05
74169;BME280;62523;53.336;83.690;2022-10-22T15:04:27;98209.66;;;13.58;47.39
74169;BME280;62523;53.336;83.690;2022-10-22T15:09:30;98200.13;;;13.46;47.79
74169;BME280;62523;53.336;83.690;2022-10-22T15:14:31;98192.06;;;13.47;48.31
74169;BME280;62523;53.336;83.690;2022-10-22T15:19:32;98166.13;;;13.41;48.11
74169;BME280;62523;53.336;83.690;2022-10-22T15:24:34;98161.81;;;13.40;48.11
74169;BME280;62523;53.336;83.690;2022-10-22T15:29:35;98132.13;;;13.37;48.24
74169;BME280;62523;53.336;83.690;2022-10-22T15:34:38;98131.03;;;13.39;48.36
74169;BME280;62523;53.336;83.690;2022-10-22T15:39:40;98107.28;;;13.28;48.61
74169;BME280;62523;53.336;83.690;2022-10-22T15:44:42;98086.75;;;13.31;48.11
74169;BME280;62523;53.336;83.690;2022-10-22T15:49:43;98083.72;;;13.46;47.41
74169;BME280;62523;53.336;83.690;2022-10-22T15:54:44;98073.72;;;13.49;47.17
74169;BME280;62523;53.336;83.690;2022-10-22T15:59:45;98052.41;;;13.61;46.50
74169;BME280;62523;53.336;83.690;2022-10-22T16:04:47;98035.00;;;13.58;46.16
74169;BME280;62523;53.336;83.690;2022-10-22T16:09:48;98022.09;;;13.75;45.28
74169;BME280;62523;53.336;83.690;2022-10-22T16:14:49;98016.09;;;13.82;44.56
74169;BME280;62523;53.336;83.690;2022-10-22T16:19:51;98010.53;;;13.95;44.29
74169;BME280;62523;53.336;83.690;2022-10-22T16:24:52;97983.34;;;13.93;43.92
74169;BME280;62523;53.336;83.690;2022-10-22T16:29:53;97988.75;;;14.21;43.29
74169;BME280;62523;53.336;83.690;2022-10-22T16:34:54;97970.38;;;14.19;43.02
74169;BME280;62523;53.336;83.690;2022-10-22T16:39:55;97956.81;;;14.42;41.94
74169;BME280;62523;53.336;83.690;2022-10-22T16:44:57;97951.72;;;14.68;41.34
74169;BME280;62523;53.336;83.690;2022-10-22T16:49:58;97922.22;;;14.81;40.66
74169;BME280;62523;53.336;83.690;2022-10-22T16:55:00;97934.16;;;14.94;40.36
74169;BME280;62523;53.336;83.690;2022-10-22T17:00:03;97902.97;;;15.06;39.54
74169;BME280;62523;53.336;83.690;2022-10-22T17:05:05;97924.50;;;15.21;38.98
74169;BME280;62523;53.336;83.690;2022-10-22T17:10:07;97912.84;;;15.32;38.64
74169;BME280;62523;53.336;83.690;2022-10-22T17:15:08;97889.31;;;15.55;37.65
74169;BME280;62523;53.336;83.690;2022-10-22T17:20:10;97906.25;;;15.54;37.48
74169;BME280;62523;53.336;83.690;2022-10-22T17:25:13;97897.91;;;15.67;36.86
74169;BME280;62523;53.336;83.690;2022-10-22T17:30:19;97891.09;;;15.82;35.99
74169;BME280;62523;53.336;83.690;2022-10-22T17:35:21;97882.72;;;15.95;35.52
74169;BME280;62523;53.336;83.690;2022-10-22T17:40:22;97877.59;;;15.75;36.05
74169;BME280;62523;53.336;83.690;2022-10-22T17:45:26;97846.97;;;15.89;35.42
74169;BME280;62523;53.336;83.690;2022-10-22T17:50:28;97865.84;;;16.04;34.44
74169;BME280;62523;53.336;83.690;2022-10-22T17:55:29;97841.78;;;16.06;33.91
74169;BME280;62523;53.336;83.690;2022-10-22T18:00:30;97830.06;;;16.16;33.50
74169;BME280;62523;53.336;83.690;2022-10-22T18:05:33;97834.22;;;16.19;33.98
74169;BME280;62523;53.336;83.690;2022-10-22T18:10:38;97852.06;;;16.09;34.36
74169;BME280;62523;53.336;83.690;2022-10-22T18:15:40;97854.53;;;16.02;35.75
74169;BME280;62523;53.336;83.690;2022-10-22T18:20:49;97860.22;;;15.81;36.15
74169;BME280;62523;53.336;83.690;2022-10-22T18:25:51;97810.81;;;15.88;35.48
74169;BME280;62523;53.336;83.690;2022-10-22T18:30:52;97810.81;;;15.88;35.23
74169;BME280;62523;53.336;83.690;2022-10-22T18:35:54;97812.09;;;15.84;36.21
74169;BME280;62523;53.336;83.690;2022-10-22T18:40:56;97798.78;;;15.76;37.85
74169;BME280;62523;53.336;83.690;2022-10-22T18:45:58;97810.25;;;15.59;39.28
74169;BME280;62523;53.336;83.690;2022-10-22T18:51:02;97824.31;;;15.51;39.62
74169;BME280;62523;53.336;83.690;2022-10-22T18:56:07;97808.41;;;15.59;39.27
74169;BME280;62523;53.336;83.690;2022-10-22T19:01:18;97811.75;;;15.61;39.38
74169;BME280;62523;53.336;83.690;2022-10-22T19:06:26;97785.75;;;15.65;39.65
74169;BME280;62523;53.336;83.690;2022-10-22T19:11:31;97792.00;;;15.64;40.49
74169;BME280;62523;53.336;83.690;2022-10-22T19:16:33;97776.56;;;15.59;41.08
74169;BME280;62523;53.336;83.690;2022-10-22T19:21:36;97724.22;;;15.43;42.05
74169;BME280;62523;53.336;83.690;2022-10-22T19:26:38;97743.84;;;15.50;41.63
74169;BME280;62523;53.336;83.690;2022-10-22T19:31:40;97777.97;;;15.45;41.76
74169;BME280;62523;53.336;83.690;2022-10-22T19:36:42;97782.97;;;15.48;41.41
74169;BME280;62523;53.336;83.690;2022-10-22T19:41:43;97760.38;;;15.44;41.21
74169;BME280;62523;53.336;83.690;2022-10-22T19:46:44;97740.88;;;15.53;40.44
74169;BME280;62523;53.336;83.690;2022-10-22T19:51:47;97733.00;;;15.44;40.62
74169;BME280;62523;53.336;83.690;2022-10-22T19:56:48;97706.47;;;15.44;40.33
74169;BME280;62523;53.336;83.690;2022-10-22T20:01:50;97711.91;;;15.34;41.28
74169;BME280;62523;53.336;83.690;2022-10-22T20:06:51;97715.22;;;15.36;41.17
74169;BME280;62523;53.336;83.690;2022-10-22T20:11:52;97707.84;;;15.22;41.80
74169;BME280;62523;53.336;83.690;2022-10-22T20:16:53;97713.28;;;15.20;41.91
74169;BME280;62523;53.336;83.690;2022-10-22T20:21:54;97686.25;;;15.17;41.92
74169;BME280;62523;53.336;83.690;2022-10-22T20:26:56;97683.75;;;15.15;42.00
74169;BME280;62523;53.336;83.690;2022-10-22T20:31:58;97656.91;;;14.92;44.02
74169;BME280;62523;53.336;83.690;2022-10-22T20:37:00;97637.66;;;14.90;43.42
74169;BME280;62523;53.336;83.690;2022-10-22T20:42:01;97639.38;;;14.99;42.34
74169;BME280;62523;53.336;83.690;2022-10-22T20:47:02;97641.25;;;15.07;41.80
74169;BME280;62523;53.336;83.690;2022-10-22T20:52:04;97624.06;;;15.11;41.13
74169;BME280;62523;53.336;83.690;2022-10-22T20:57:05;97622.22;;;15.11;41.21
74169;BME280;62523;53.336;83.690;2022-10-22T21:02:08;97607.81;;;15.14;40.87
74169;BME280;62523;53.336;83.690;2022-10-22T21:07:13;97597.69;;;15.09;40.82
74169;BME280;62523;53.336;83.690;2022-10-22T21:12:15;97595.75;;;15.20;39.89
74169;BME280;62523;53.336;83.690;2022-10-22T21:17:16;97598.06;;;15.14;39.85
74169;BME280;62523;53.336;83.690;2022-10-22T21:22:17;97591.91;;;15.14;39.69
74169;BME280;62523;53.336;83.690;2022-10-22T21:27:18;97607.78;;;15.06;40.40
74169;BME280;62523;53.336;83.690;2022-10-22T21:32:20;97612.81;;;15.17;39.68
74169;BME280;62523;53.336;83.690;2022-10-22T21:37:21;97613.88;;;15.32;39.17
74169;BME280;62523;53.336;83.690;2022-10-22T21:42:23;97605.34;;;15.21;39.67
74169;BME280;62523;53.336;83.690;2022-10-22T21:47:24;97586.44;;;15.15;39.24
74169;BME280;62523;53.336;83.690;2022-10-22T21:52:25;97580.59;;;15.04;39.60
74169;BME280;62523;53.336;83.690;2022-10-22T21:57:26;97578.19;;;14.92;39.94
74169;BME280;62523;53.336;83.690;2022-10-22T22:02:30;97549.97;;;14.83;40.07
74169;BME280;62523;53.336;83.690;2022-10-22T22:07:31;97533.03;;;14.76;40.45
74169;BME280;62523;53.336;83.690;2022-10-22T22:12:33;97524.03;;;14.69;41.03
74169;BME280;62523;53.336;83.690;2022-10-22T22:17:34;97527.63;;;14.60;41.63
74169;BME280;62523;53.336;83.690;2022-10-22T22:22:36;97534.13;;;14.65;41.76
74169;BME280;62523;53.336;83.690;2022-10-22T22:27:37;97537.41;;;14.59;41.93
74169;BME280;62523;53.336;83.690;2022-10-22T22:32:38;97541.44;;;14.53;42.16
74169;BME280;62523;53.336;83.690;2022-10-22T22:37:40;97547.06;;;14.50;42.53
74169;BME280;62523;53.336;83.690;2022-10-22T22:42:41;97528.22;;;14.53;42.37
74169;BME280;62523;53.336;83.690;2022-10-22T22:47:42;97518.91;;;14.49;42.67
74169;BME280;62523;53.336;83.690;2022-10-22T22:52:43;97506.28;;;14.61;42.57
74169;BME280;62523;53.336;83.690;2022-10-22T22:57:45;97525.66;;;14.62;43.07
74169;BME280;62523;53.336;83.690;2022-10-22T23:02:46;97541.47;;;14.71;43.20
74169;BME280;62523;53.336;83.690;2022-10-22T23:07:47;97551.06;;;14.72;43.52
74169;BME280;62523;53.336;83.690;2022-10-22T23:12:48;97603.69;;;14.31;47.77
74169;BME280;62523;53.336;83.690;2022-10-22T23:17:50;97648.59;;;13.03;55.79
74169;BME280;62523;53.336;83.690;2022-10-22T23:22:51;97671.06;;;12.50;58.87
74169;BME280;62523;53.336;83.690;2022-10-22T23:27:52;97680.09;;;12.38;60.24
74169;BME280;62523;53.336;83.690;2022-10-22T23:32:53;97681.44;;;12.03;63.30
74169;BME280;62523;53.336;83.690;2022-10-22T23:37:57;97687.25;;;11.66;67.40
74169;BME280;62523;53.336;83.690;2022-10-22T23:42:59;97675.53;;;11.49;69.93
74169;BME280;62523;53.336;83.690;2022-10-22T23:48:07;97711.03;;;11.24;73.08
74169;BME280;62523;53.336;83.690;2022-10-22T23:53:08;97708.59;;;10.90;74.77
74169;BME280;62523;53.336;83.690;2022-10-22T23:58:10;97710.88;;;10.62;76.76
